Woodworth, Louisiana
Current Conditions -  °F | °C
As of 8:53 AM on Thursday 23 Oct 2014 (Local Time) from KAEX Reporting Station
Clear Clear  
Wind Chill: 54°   Ceiling: Unl
Heat Index: 54°   Visibility: 10mi
Dew Point: 49°   Wind: 3mph
Humidity: 83%   Direction: 70°ENE
Pressure: 30.12"   Gusts: NA
Location:  31.15°N, 92.5°W
Report Text: KAEX 231353Z 07003KT 10SM CLR 12/09 A3012 RMK AO2 SLP204 T01220094
Loading
Personal Weather Stations






























Interactive Weather Map New forecast layout! Learn more

10-Day Weather Forecast

Advertisements
Track Severe Weather on mobile